Time;durP1;ratioP1;P1;durP2;ratioP2;P2;SDS_P1;SDS_P2;PMS_P1;PMS_P2;Temp;Humidity;BMP_temperature;BMP_pressure;BME280_temperature;BME280_humidity;BME280_pressure;Samples;Min_cycle;Max_cycle;Signal;HPM_P1;HPM_P2
2022/08/08 00:02:01;;;;;;;4.50;3.17;;;;;;;16.18;57.65;101690.16;5092028;28;20040;-87
2022/08/08 00:04:56;;;;;;;3.63;3.20;;;;;;;16.12;57.59;101693.75;5087185;28;20072;-84
2022/08/08 00:07:48;;;;;;;2.67;2.45;;;;;;;16.06;57.84;101691.22;5105118;28;20040;-83
2022/08/08 00:10:56;;;;;;;2.75;2.53;;;;;;;15.98;58.24;101691.34;5075631;28;20041;-85
2022/08/08 00:13:34;;;;;;;2.63;2.42;;;;;;;15.93;57.93;101684.34;5068687;28;20049;-85
2022/08/08 00:16:11;;;;;;;3.40;3.20;;;;;;;15.91;58.74;101691.44;5077084;28;20106;-79
2022/08/08 00:18:57;;;;;;;3.25;2.95;;;;;;;15.87;59.09;101688.81;5073846;28;20051;-81
2022/08/08 00:21:41;;;;;;;3.42;3.00;;;;;;;15.85;58.98;101692.38;5072647;28;20047;-85
2022/08/08 00:24:22;;;;;;;3.50;3.25;;;;;;;15.85;59.21;101685.34;5077502;28;20163;-82
2022/08/08 00:26:55;;;;;;;3.25;2.85;;;;;;;15.83;58.93;101694.19;5080431;28;20422;-81
2022/08/08 00:29:40;;;;;;;3.30;3.00;;;;;;;15.81;59.48;101701.25;5079515;28;20773;-83
2022/08/08 00:32:16;;;;;;;3.70;2.95;;;;;;;15.79;59.67;101689.81;5067431;28;20048;-81
2022/08/08 00:35:13;;;;;;;3.17;2.97;;;;;;;15.75;59.56;101694.25;5067446;28;20381;-85
2022/08/08 00:38:06;;;;;;;3.47;2.83;;;;;;;15.72;59.79;101691.66;5080776;28;20048;-85
2022/08/08 00:40:58;;;;;;;3.97;2.90;;;;;;;15.67;59.85;101688.19;5081140;28;20483;-79
2022/08/08 00:44:08;;;;;;;3.30;2.83;;;;;;;15.64;60.25;101690.88;5097794;28;20052;-82
2022/08/08 00:47:17;;;;;;;4.57;3.22;;;;;;;15.55;60.42;101687.50;5085762;28;20067;-80
2022/08/08 00:50:36;;;;;;;4.85;2.70;;;;;;;15.49;60.77;101689.34;5084844;28;20048;-82
2022/08/08 00:53:36;;;;;;;3.05;2.85;;;;;;;15.46;60.50;101684.97;5081174;28;20097;-81
2022/08/08 00:56:54;;;;;;;3.88;2.88;;;;;;;15.43;61.09;101687.63;5081271;28;20039;-83
2022/08/08 01:00:04;;;;;;;5.07;2.92;;;;;;;15.39;61.23;101691.19;5076989;28;20040;-81
2022/08/08 01:03:20;;;;;;;4.10;2.50;;;;;;;15.34;61.42;101696.56;5081727;28;20131;-84
2022/08/08 01:06:30;;;;;;;4.03;3.72;;;;;;;15.27;61.49;101697.50;5081759;28;20036;-84
2022/08/08 01:09:53;;;;;;;3.30;3.00;;;;;;;15.20;61.98;101696.72;5080839;28;20517;-83
2022/08/08 01:13:32;;;;;;;5.80;3.20;;;;;;;15.17;62.50;101696.72;5078673;28;20110;-83
2022/08/08 01:16:44;;;;;;;3.53;3.20;;;;;;;15.14;62.36;101695.91;4998271;28;20050;-84
2022/08/08 01:19:35;;;;;;;3.45;3.03;;;;;;;15.08;62.29;101699.47;4998958;28;20613;-86
2022/08/08 01:22:40;;;;;;;3.53;3.20;;;;;;;15.03;63.15;101693.38;5082483;27;20051;-83
2022/08/08 01:25:50;;;;;;;5.65;3.20;;;;;;;14.97;63.69;101694.31;5097260;27;20134;-81
2022/08/08 01:29:06;;;;;;;3.13;2.83;;;;;;;14.89;64.51;101698.81;5089422;27;20043;-83
2022/08/08 01:32:19;;;;;;;4.63;3.67;;;;;;;14.88;64.73;101699.69;5089433;28;20047;-81
2022/08/08 01:35:25;;;;;;;2.70;2.50;;;;;;;14.84;64.42;101692.72;5108392;27;20047;-81
2022/08/08 01:38:27;;;;;;;3.05;2.80;;;;;;;14.78;65.03;101695.41;5107651;27;20489;-81
2022/08/08 01:41:23;;;;;;;5.43;3.10;;;;;;;14.76;65.64;101705.06;5081143;27;20055;-84
2022/08/08 01:44:24;;;;;;;5.60;3.65;;;;;;;14.70;65.68;101700.75;5093323;27;20039;-82
2022/08/08 01:47:37;;;;;;;4.90;4.40;;;;;;;14.61;66.81;101696.38;5091864;28;20039;-83
2022/08/08 01:50:26;;;;;;;4.05;3.50;;;;;;;14.55;67.23;101701.72;5095016;28;20058;-83
2022/08/08 01:53:25;;;;;;;3.30;3.00;;;;;;;14.47;67.37;101700.91;5093645;28;20150;-84
2022/08/08 01:56:39;;;;;;;3.80;3.33;;;;;;;14.42;67.77;101697.44;5088173;28;20039;-82
2022/08/08 01:59:58;;;;;;;3.88;3.50;;;;;;;14.35;67.94;101694.88;5109431;27;20397;-84
2022/08/08 02:03:31;;;;;;;4.35;3.85;;;;;;;14.33;68.32;101696.63;5066986;27;20447;-82
2022/08/08 02:06:17;;;;;;;3.88;3.45;;;;;;;14.27;67.93;101695.81;5011181;28;20487;-80
2022/08/08 02:09:22;;;;;;;3.35;3.05;;;;;;;14.21;68.34;101691.47;4988240;28;20052;-80
2022/08/08 02:11:49;;;;;;;4.15;3.75;;;;;;;14.15;68.45;101692.38;5083348;28;20610;-81
2022/08/08 02:14:39;;;;;;;4.75;3.45;;;;;;;14.13;68.67;101693.25;5079484;28;20915;-87
2022/08/08 02:17:12;;;;;;;3.70;3.40;;;;;;;14.11;69.07;101695.06;5099899;27;20106;-84
2022/08/08 02:20:15;;;;;;;4.68;3.88;;;;;;;14.11;69.51;101702.94;5090401;28;20062;-82
2022/08/08 02:23:01;;;;;;;5.40;3.90;;;;;;;14.07;69.94;101707.34;5092090;28;20157;-80
2022/08/08 02:25:48;;;;;;;4.95;3.90;;;;;;;14.01;70.33;101705.63;5069332;28;20489;-79
2022/08/08 02:28:44;;;;;;;3.80;3.50;;;;;;;13.96;70.68;101709.16;5080110;28;20044;-83
2022/08/08 02:32:06;;;;;;;4.50;3.70;;;;;;;13.94;71.05;101713.59;5087015;28;20044;-86
2022/08/08 02:35:08;;;;;;;4.95;3.53;;;;;;;13.89;70.85;101711.84;5101570;28;20044;-83
2022/08/08 02:38:02;;;;;;;8.48;3.70;;;;;;;13.89;71.87;101710.97;5098250;28;20044;-84
2022/08/08 02:41:18;;;;;;;4.70;3.85;;;;;;;13.86;72.02;101706.59;5082860;28;20046;-85
2022/08/08 02:44:28;;;;;;;;;;;;;;;13.84;71.92;101715.38;5086820;28;20048;-79
2022/08/08 02:47:27;;;;;;;4.47;4.03;;;;;;;13.79;72.25;101719.81;5092792;28;19927;-79
2022/08/08 02:50:31;;;;;;;4.57;4.18;;;;;;;13.74;72.51;101717.22;5085520;28;20085;-81
2022/08/08 02:53:30;;;;;;;6.93;4.25;;;;;;;13.68;73.19;101715.47;5092666;28;20564;-85
2022/08/08 02:56:40;;;;;;;6.07;4.22;;;;;;;13.65;73.83;101712.84;5081572;28;20121;-85
2022/08/08 02:59:31;;;;;;;5.30;4.18;;;;;;;13.65;73.13;101723.38;5089343;28;20076;-85
2022/08/08 03:02:22;;;;;;;4.40;3.88;;;;;;;13.59;73.46;101715.50;5106657;28;20059;-81
2022/08/08 03:04:58;;;;;;;3.53;3.22;;;;;;;13.58;73.67;101719.00;5104409;28;20071;-79
2022/08/08 03:07:24;;;;;;;5.95;4.30;;;;;;;13.55;74.00;101714.63;5092123;28;20265;-83
2022/08/08 03:10:34;;;;;;;6.25;4.63;;;;;;;13.51;74.44;101715.53;5091330;28;20097;-82
2022/08/08 03:13:31;;;;;;;14.00;4.78;;;;;;;13.46;74.61;101714.69;5094265;28;20036;-85
2022/08/08 03:16:41;;;;;;;5.10;3.95;;;;;;;13.43;74.83;101714.69;5095159;28;20119;-82
2022/08/08 03:19:28;;;;;;;6.93;4.47;;;;;;;13.43;75.36;101708.56;5094753;28;20055;-79
2022/08/08 03:22:01;;;;;;;5.72;5.05;;;;;;;13.44;74.46;101711.19;5080085;28;20581;-83
2022/08/08 03:24:27;;;;;;;3.92;3.53;;;;;;;13.42;74.73;101709.47;5089431;28;20370;-82
2022/08/08 03:27:12;;;;;;;3.95;3.65;;;;;;;13.42;74.49;101710.31;5094099;28;20040;-84
2022/08/08 03:29:52;;;;;;;5.05;4.03;;;;;;;13.39;75.41;101715.59;5105857;27;20127;-81
2022/08/08 03:35:08;;;;;;;4.68;3.35;;;;;;;13.32;75.70;101711.19;5100166;27;20043;-81
2022/08/08 03:37:35;;;;;;;3.83;3.53;;;;;;;13.27;76.22;101707.72;5098249;27;20646;-83
2022/08/08 03:40:05;;;;;;;4.47;4.05;;;;;;;13.23;76.52;101707.72;5100015;27;20031;-82
2022/08/08 03:42:32;;;;;;;4.13;3.72;;;;;;;13.21;76.58;101711.25;5118005;27;20114;-79
2022/08/08 03:44:59;;;;;;;6.72;4.90;;;;;;;13.17;77.46;101718.25;5096278;27;20149;-85
2022/08/08 03:47:26;;;;;;;4.53;3.80;;;;;;;13.16;77.42;101720.88;5096275;27;20061;-81
2022/08/08 03:50:00;;;;;;;6.05;4.93;;;;;;;13.13;77.66;101729.66;5106552;27;20035;-86
2022/08/08 03:52:27;;;;;;;7.32;5.53;;;;;;;13.13;78.29;101732.28;5104499;27;20054;-83
2022/08/08 03:54:53;;;;;;;8.20;5.72;;;;;;;13.14;77.97;101741.03;5109525;27;20051;-84
2022/08/08 03:57:20;;;;;;;9.25;5.03;;;;;;;13.10;78.51;101732.28;5117593;27;20059;-84
2022/08/08 03:59:47;;;;;;;7.05;5.13;;;;;;;13.09;78.41;101741.06;5102999;27;20043;-80
2022/08/08 04:02:18;;;;;;;9.68;5.25;;;;;;;13.02;78.85;101734.94;5109167;27;20471;-84
2022/08/08 04:04:52;;;;;;;5.82;5.22;;;;;;;12.99;79.24;101741.97;5089428;27;20054;-81
2022/08/08 04:07:19;;;;;;;8.10;5.00;;;;;;;12.94;79.34;101738.47;5099416;27;20027;-78
2022/08/08 04:09:56;;;;;;;6.28;4.75;;;;;;;12.90;80.62;101743.69;5118987;27;20067;-83
2022/08/08 04:12:24;;;;;;;4.88;4.38;;;;;;;12.89;80.33;101752.50;5113365;27;20042;-89
2022/08/08 04:14:51;;;;;;;9.05;5.38;;;;;;;12.89;80.63;101751.59;5100243;27;20888;-82
2022/08/08 04:17:17;;;;;;;6.88;5.20;;;;;;;12.89;81.01;101754.22;5089812;27;20043;-80
2022/08/08 04:19:44;;;;;;;6.50;5.53;;;;;;;12.87;81.36;101756.84;5114214;27;20761;-80
2022/08/08 04:22:11;;;;;;;6.22;4.75;;;;;;;12.86;81.45;101759.50;5100954;27;20079;-85
2022/08/08 04:24:38;;;;;;;5.47;4.82;;;;;;;12.87;81.19;101756.00;5087662;27;20039;-82
2022/08/08 04:27:06;;;;;;;7.72;5.25;;;;;;;12.87;81.71;101753.38;5101915;27;20126;-87
2022/08/08 04:29:33;;;;;;;7.57;5.05;;;;;;;12.86;81.74;101754.22;5096917;27;20035;-82
2022/08/08 04:31:59;;;;;;;8.90;5.78;;;;;;;12.85;81.94;101755.09;5117340;27;20040;-78
2022/08/08 04:34:27;;;;;;;8.68;4.50;;;;;;;12.84;81.76;101762.13;5083106;27;20791;-84
2022/08/08 04:36:54;;;;;;;6.28;5.68;;;;;;;12.84;82.25;101766.47;5099090;28;20051;-82
2022/08/08 04:39:21;;;;;;;6.20;5.32;;;;;;;12.86;82.03;101760.34;5093538;27;20496;-82
2022/08/08 04:41:47;;;;;;;5.55;4.68;;;;;;;12.86;81.84;101762.13;5114072;27;20335;-87
2022/08/08 04:44:15;;;;;;;7.25;5.35;;;;;;;12.86;82.24;101756.88;5110945;27;20043;-82
2022/08/08 04:46:42;;;;;;;9.05;6.85;;;;;;;12.89;82.03;101759.47;5113827;27;20065;-85
2022/08/08 04:49:09;;;;;;;5.53;4.50;;;;;;;12.90;81.83;101762.09;5100380;27;20486;-85
2022/08/08 04:51:36;;;;;;;6.57;5.55;;;;;;;12.93;81.60;101757.72;5102073;27;20031;-81
2022/08/08 04:54:05;;;;;;;5.65;5.15;;;;;;;12.98;81.33;101759.47;5076612;27;20043;-87
2022/08/08 04:56:32;;;;;;;5.63;4.80;;;;;;;13.03;81.01;101762.09;5087060;27;20123;-81
2022/08/08 04:58:58;;;;;;;5.75;5.03;;;;;;;13.08;81.02;101760.34;5083874;27;20397;-82
2022/08/08 05:04:27;;;;;;;6.53;5.93;;;;;;;13.12;80.54;101763.84;5109445;27;20044;-80
2022/08/08 05:06:58;;;;;;;6.07;4.93;;;;;;;13.18;80.67;101763.81;5096439;27;20083;-85
2022/08/08 05:09:25;;;;;;;5.07;4.55;;;;;;;13.22;79.81;101758.56;5088730;27;20539;-84
2022/08/08 05:11:52;;;;;;;8.02;5.90;;;;;;;13.28;79.63;101759.44;5081768;27;20039;-81
2022/08/08 05:14:22;;;;;;;8.43;5.38;;;;;;;13.31;79.54;101764.66;5108650;27;20039;-84
2022/08/08 05:16:49;;;;;;;5.88;5.28;;;;;;;13.34;79.54;101770.78;5089253;27;20400;-80
2022/08/08 05:19:16;;;;;;;7.95;5.75;;;;;;;13.36;79.43;101766.47;5105449;27;20049;-84
2022/08/08 05:21:44;;;;;;;7.95;5.38;;;;;;;13.41;79.20;101763.78;5096628;27;20593;-80
2022/08/08 05:24:11;;;;;;;9.88;5.90;;;;;;;13.47;78.61;101765.56;5101665;27;20059;-85
2022/08/08 05:26:45;;;;;;;7.82;4.93;;;;;;;13.48;78.55;101762.91;5110973;27;20754;-83
2022/08/08 05:29:15;;;;;;;6.18;4.88;;;;;;;13.54;78.18;101768.13;5095423;27;20046;-84
2022/08/08 05:31:42;;;;;;;5.40;4.90;;;;;;;13.58;77.78;101761.09;5100908;27;20067;-82
2022/08/08 05:34:43;;;;;;;8.60;5.57;;;;;;;13.63;77.81;101766.38;5099428;27;20352;-81
2022/08/08 05:37:12;;;;;;;6.60;5.43;;;;;;;13.67;77.49;101770.72;5105941;27;20398;-82
2022/08/08 05:39:41;;;;;;;6.72;5.55;;;;;;;13.73;77.08;101770.72;5104295;27;20699;-80
2022/08/08 05:42:08;;;;;;;10.43;6.80;;;;;;;13.79;76.83;101770.66;5099155;27;20052;-83
2022/08/08 05:44:48;;;;;;;6.78;5.13;;;;;;;13.85;76.84;101765.38;5084210;27;21164;-81
2022/08/08 05:47:16;;;;;;;6.53;5.28;;;;;;;13.92;76.18;101770.63;5103106;27;20092;-82
2022/08/08 05:49:47;;;;;;;5.95;5.45;;;;;;;13.97;76.48;101772.34;5090935;27;20044;-83
2022/08/08 05:52:14;;;;;;;6.70;5.80;;;;;;;14.06;76.64;101768.78;5092126;28;20682;-81
2022/08/08 05:54:40;;;;;;;6.18;5.13;;;;;;;14.14;75.79;101777.50;5085114;28;20043;-83
2022/08/08 05:57:15;;;;;;;6.63;5.82;;;;;;;14.18;75.96;101774.00;5099933;28;20052;-85
2022/08/08 05:59:44;;;;;;;12.15;6.20;;;;;;;14.23;76.00;101781.84;5111947;27;20043;-87
2022/08/08 06:05:09;;;;;;;7.22;5.70;;;;;;;14.32;75.09;101775.66;5086424;28;20036;-87
2022/08/08 06:07:41;;;;;;;6.30;5.70;;;;;;;14.38;75.46;101773.00;5083163;27;20043;-79
2022/08/08 06:10:10;;;;;;;7.47;4.95;;;;;;;14.44;75.08;101778.19;5094158;28;20113;-79
2022/08/08 06:12:38;;;;;;;6.65;4.70;;;;;;;14.50;74.85;101782.56;5097870;27;20050;-81
2022/08/08 06:15:08;;;;;;;6.72;5.03;;;;;;;14.58;74.73;101782.53;5103127;27;20253;-85
2022/08/08 06:17:37;;;;;;;6.57;4.72;;;;;;;14.65;74.29;101789.50;5094457;28;20039;-83
2022/08/08 06:20:10;;;;;;;8.63;4.68;;;;;;;14.70;73.28;101785.06;5097821;28;20044;-87
2022/08/08 06:22:37;;;;;;;7.97;4.88;;;;;;;14.71;73.16;101782.41;5107624;27;20573;-82
2022/08/08 06:25:06;;;;;;;5.80;5.18;;;;;;;14.75;73.13;101787.69;5096546;28;20055;-80
2022/08/08 06:27:43;;;;;;;5.55;4.90;;;;;;;14.86;72.85;101786.72;5100558;28;20470;-82
2022/08/08 06:30:13;;;;;;;6.05;5.43;;;;;;;14.96;72.50;101784.84;5101781;28;20155;-82
2022/08/08 06:33:00;;;;;;;6.00;5.45;;;;;;;15.04;71.86;101787.41;5080282;28;20043;-84
2022/08/08 06:35:31;;;;;;;10.55;5.10;;;;;;;15.11;71.36;101789.13;5082564;28;20092;-84
2022/08/08 06:38:04;;;;;;;4.90;4.40;;;;;;;15.17;71.41;101790.81;5109104;28;20040;-83
2022/08/08 06:40:34;;;;;;;7.38;5.47;;;;;;;15.23;70.96;101801.31;5097998;28;20120;-84
2022/08/08 06:43:07;;;;;;;7.70;5.28;;;;;;;15.32;70.73;101801.22;5110956;28;20048;-81
2022/08/08 06:45:36;;;;;;;10.80;5.72;;;;;;;15.39;69.89;101796.75;5100034;28;20055;-80
2022/08/08 06:48:04;;;;;;;6.03;4.55;;;;;;;15.46;70.14;101808.09;5105930;28;20027;-88
2022/08/08 06:50:32;;;;;;;6.00;5.00;;;;;;;15.54;69.58;101808.91;5096160;28;20051;-83
2022/08/08 06:53:03;;;;;;;8.15;5.43;;;;;;;15.61;69.62;101810.56;5111417;28;20035;-82
2022/08/08 06:55:31;;;;;;;11.18;5.28;;;;;;;15.74;69.23;101813.94;5079084;28;20058;-82
2022/08/08 06:57:58;;;;;;;10.35;5.57;;;;;;;15.89;69.09;101810.25;5091004;28;20056;-84
2022/08/08 07:00:36;;;;;;;7.63;5.65;;;;;;;16.06;68.24;101812.72;5095697;28;20062;-84
2022/08/08 07:03:09;;;;;;;5.97;5.38;;;;;;;16.19;67.83;101819.56;5097480;28;20122;-81
2022/08/08 07:05:40;;;;;;;6.15;5.57;;;;;;;16.44;67.07;101816.56;5097989;28;20209;-84
2022/08/08 07:08:20;;;;;;;9.48;5.10;;;;;;;16.80;66.08;101814.25;5092281;27;20718;-83
2022/08/08 07:10:51;;;;;;;8.45;5.15;;;;;;;17.34;64.33;101815.13;5087606;27;20044;-84
2022/08/08 07:13:19;;;;;;;5.82;4.55;;;;;;;17.86;62.42;101818.53;5095214;27;20057;-82
2022/08/08 07:16:14;;;;;;;5.63;4.15;;;;;;;18.44;61.46;101813.72;5102316;27;20050;-81
2022/08/08 07:19:20;;;;;;;5.10;4.35;;;;;;;19.26;57.30;101819.69;5112652;27;20111;-81
2022/08/08 07:21:57;;;;;;;7.00;4.05;;;;;;;19.86;55.22;101821.63;5107926;27;20047;-85
2022/08/08 07:24:43;;;;;;;5.00;4.57;;;;;;;20.35;53.04;101822.81;5096142;27;20049;-82
2022/08/08 07:27:13;;;;;;;5.50;4.20;;;;;;;20.77;52.98;101822.34;5083920;27;20040;-79
2022/08/08 07:29:49;;;;;;;6.20;3.85;;;;;;;21.24;50.38;101815.47;5091826;27;20485;-84
2022/08/08 07:32:18;;;;;;;5.53;4.93;;;;;;;21.63;50.15;101821.19;5102278;27;20047;-82
2022/08/08 07:34:46;;;;;;;5.50;4.38;;;;;;;22.05;48.88;101834.75;5103013;27;20035;-84
2022/08/08 07:37:13;;;;;;;4.80;3.60;;;;;;;22.45;47.95;101822.56;5111018;27;20108;-82
2022/08/08 07:39:43;;;;;;;4.70;4.28;;;;;;;22.92;46.78;101824.19;5131924;27;20099;-86
2022/08/08 07:42:13;;;;;;;4.07;3.55;;;;;;;23.23;45.83;101825.53;5110937;27;20114;-82
2022/08/08 07:44:42;;;;;;;5.32;4.82;;;;;;;23.35;44.71;101827.69;5108471;27;20059;-85
2022/08/08 07:47:09;;;;;;;5.38;4.03;;;;;;;23.57;44.90;101829.38;5105073;28;20043;-88
2022/08/08 07:49:38;;;;;;;3.72;3.42;;;;;;;23.91;44.40;101835.91;5120795;27;20065;-82
2022/08/08 07:52:10;;;;;;;5.40;4.38;;;;;;;24.35;42.43;101830.25;5110411;27;20043;-89
2022/08/08 07:55:22;;;;;;;4.43;4.03;;;;;;;24.35;41.80;101830.25;5123591;28;20073;-87
2022/08/08 07:58:05;;;;;;;5.40;4.10;;;;;;;24.18;41.13;101836.41;5095707;27;20043;-81
2022/08/08 08:00:56;;;;;;;5.83;3.30;;;;;;;24.37;41.48;101832.88;5122858;27;20039;-82
2022/08/08 08:03:34;;;;;;;4.43;3.17;;;;;;;24.97;40.56;101835.28;5109222;28;20047;-86
2022/08/08 08:06:06;;;;;;;3.83;3.53;;;;;;;25.67;39.21;101834.34;5091000;28;20107;-80
2022/08/08 08:09:09;;;;;;;4.55;4.00;;;;;;;26.30;37.25;101836.25;5120170;27;20031;-82
2022/08/08 08:11:44;;;;;;;3.38;3.08;;;;;;;26.68;36.67;101829.63;5097689;28;20142;-83
2022/08/08 08:14:17;;;;;;;3.28;2.70;;;;;;;27.05;36.38;101840.91;5103110;28;20163;-81
2022/08/08 08:16:46;;;;;;;2.92;2.72;;;;;;;27.47;35.43;101836.63;5123509;27;20050;-86
2022/08/08 08:19:14;;;;;;;4.85;3.30;;;;;;;27.47;34.78;101836.63;5127371;27;20063;-85
2022/08/08 08:21:49;;;;;;;8.55;3.20;;;;;;;27.39;33.72;101831.72;5094311;27;20047;-83
2022/08/08 08:24:16;;;;;;;3.60;3.30;;;;;;;27.37;34.73;101838.09;5101977;28;20069;-84
2022/08/08 08:26:42;;;;;;;4.75;2.95;;;;;;;27.89;34.31;101842.94;5106515;27;20040;-83
2022/08/08 08:29:09;;;;;;;4.05;2.85;;;;;;;28.34;32.28;101836.53;5111717;28;20131;-81
2022/08/08 08:31:36;;;;;;;4.30;3.40;;;;;;;28.51;32.73;101841.69;5093588;28;20048;-88
2022/08/08 08:34:03;;;;;;;3.38;3.08;;;;;;;29.08;32.46;101836.16;5101428;28;20072;-84
2022/08/08 08:36:30;;;;;;;2.67;2.53;;;;;;;29.78;31.29;101835.72;5098129;28;20044;-85
2022/08/08 08:38:56;;;;;;;2.85;2.65;;;;;;;30.22;30.02;101838.03;5099151;28;20092;-82
2022/08/08 08:41:24;;;;;;;4.72;2.95;;;;;;;30.08;29.57;101834.50;5095847;28;20059;-85
2022/08/08 08:43:52;;;;;;;5.03;2.75;;;;;;;29.91;28.73;101830.34;5105449;28;20040;-87
2022/08/08 08:46:20;;;;;;;4.03;3.08;;;;;;;29.97;29.23;101835.31;5117326;27;20050;-84
2022/08/08 08:48:47;;;;;;;2.35;2.15;;;;;;;30.49;28.92;101832.44;5082591;28;20048;-84
2022/08/08 08:51:16;;;;;;;3.65;3.00;;;;;;;31.14;27.58;101831.06;5120107;27;20040;-85
2022/08/08 08:53:53;;;;;;;2.75;2.50;;;;;;;31.87;26.46;101829.94;5113840;28;20065;-85
2022/08/08 08:56:22;;;;;;;3.00;2.67;;;;;;;32.04;26.29;101834.81;5089963;28;20036;-86
2022/08/08 08:58:51;;;;;;;3.72;3.08;;;;;;;31.55;25.86;101830.63;5105685;28;20039;-81
2022/08/08 09:01:23;;;;;;;3.33;3.08;;;;;;;30.87;26.45;101838.59;5095527;28;20071;-85
2022/08/08 09:03:50;;;;;;;4.00;2.70;;;;;;;30.80;26.96;101830.09;5102625;28;20055;-83
2022/08/08 09:06:29;;;;;;;3.50;3.20;;;;;;;31.50;26.17;101831.88;5100562;28;20536;-81
2022/08/08 09:09:08;;;;;;;3.20;2.55;;;;;;;32.17;25.35;101826.56;5091969;28;20040;-82
2022/08/08 09:11:36;;;;;;;3.17;2.97;;;;;;;32.42;25.29;101836.22;5085396;28;20105;-81
2022/08/08 09:14:03;;;;;;;3.60;3.40;;;;;;;32.86;24.65;101836.19;5084654;28;20048;-81
2022/08/08 09:16:32;;;;;;;3.03;2.78;;;;;;;33.54;23.97;101826.78;5104179;28;20043;-83
2022/08/08 09:18:58;;;;;;;4.25;3.80;;;;;;;34.30;23.30;101824.44;5095397;28;20040;-81
2022/08/08 09:21:27;;;;;;;2.55;2.35;;;;;;;34.37;22.51;101832.91;5103504;28;20248;-84
2022/08/08 09:23:55;;;;;;;3.88;2.75;;;;;;;34.48;21.70;101828.34;5097226;27;20072;-83
2022/08/08 09:26:35;;;;;;;2.80;2.45;;;;;;;34.28;21.55;101825.56;5074346;28;20075;-85
2022/08/08 09:29:02;;;;;;;3.53;2.42;;;;;;;34.07;22.16;101831.13;5080470;28;20063;-81
2022/08/08 09:31:44;;;;;;;2.45;1.95;;;;;;;34.28;21.99;101828.28;5082979;28;20097;-82
2022/08/08 09:34:13;;;;;;;;;;;;;;;34.54;21.56;101828.63;5076977;28;20471;-86
2022/08/08 09:36:48;;;;;;;2.67;2.33;;;;;;;35.22;20.84;101826.84;5077446;28;20389;-85
2022/08/08 09:39:20;;;;;;;1.83;1.73;;;;;;;35.60;19.93;101835.88;5086207;28;20624;-81
2022/08/08 09:42:01;;;;;;;1.83;1.67;;;;;;;34.79;19.68;101827.16;5091403;28;20040;-81
2022/08/08 09:45:05;;;;;;;1.90;1.80;;;;;;;34.27;20.59;101827.41;5083748;28;20517;-81
2022/08/08 09:47:35;;;;;;;2.65;2.22;;;;;;;33.53;21.10;101831.31;5077639;28;20132;-83
2022/08/08 09:50:34;;;;;;;2.15;2.05;;;;;;;33.69;21.35;101828.13;5085313;28;20032;-82
2022/08/08 09:53:05;;;;;;;2.30;2.20;;;;;;;34.62;19.97;101825.19;5088168;22;20072;-82
2022/08/08 09:55:31;;;;;;;2.25;2.15;;;;;;;35.27;19.66;101828.09;5079863;28;20091;-82
2022/08/08 09:58:07;;;;;;;2.00;1.90;;;;;;;36.06;18.99;101817.75;5047657;28;20226;-83
2022/08/08 10:00:38;;;;;;;2.50;1.88;;;;;;;36.50;18.63;101827.91;5063529;28;20720;-89
2022/08/08 10:03:05;;;;;;;2.20;2.10;;;;;;;36.75;18.17;101819.94;5062339;28;20740;-89
2022/08/08 10:05:37;;;;;;;3.60;2.05;;;;;;;36.38;18.43;101823.72;5066239;28;20043;-85
2022/08/08 10:08:06;;;;;;;1.70;1.67;;;;;;;35.54;19.61;101818.28;5062443;28;20064;-85
2022/08/08 10:10:38;;;;;;;2.28;2.05;;;;;;;36.09;19.00;101820.16;5074102;28;20045;-88
2022/08/08 10:13:28;;;;;;;2.05;1.83;;;;;;;36.52;18.46;101817.72;5077229;28;20039;-92
2022/08/08 10:15:57;;;;;;;2.28;2.15;;;;;;;36.46;18.15;101822.94;5058784;28;20024;-90
2022/08/08 10:18:35;;;;;;;2.55;2.05;;;;;;;35.69;18.66;101817.78;5087234;28;20043;-85
2022/08/08 10:21:10;;;;;;;2.95;1.88;;;;;;;35.86;19.40;101806.09;5085381;28;20055;-83
2022/08/08 10:23:47;;;;;;;2.47;1.90;;;;;;;36.99;17.83;101812.97;5047559;28;20122;-83
2022/08/08 10:26:26;;;;;;;2.05;1.95;;;;;;;37.79;16.68;101809.19;5048574;28;20112;-84
2022/08/08 10:28:57;;;;;;;1.83;1.73;;;;;;;37.88;17.17;101806.28;5059526;28;20090;-84
2022/08/08 10:34:17;;;;;;;1.70;1.60;;;;;;;38.18;16.49;101800.38;5068840;28;20039;-85
2022/08/08 10:36:47;;;;;;;2.15;1.80;;;;;;;37.20;17.53;101810.72;5061637;28;20119;-84
2022/08/08 10:39:23;;;;;;;1.70;1.60;;;;;;;37.68;16.73;101808.44;5081102;28;20126;-84
2022/08/08 10:42:00;;;;;;;2.17;2.13;;;;;;;38.55;16.19;101799.94;5075182;28;20094;-87
2022/08/08 10:44:42;;;;;;;2.25;2.08;;;;;;;39.00;15.86;101794.91;5065409;28;20044;-86
2022/08/08 10:47:17;;;;;;;2.05;1.92;;;;;;;39.69;15.84;101799.88;5068325;28;20064;-85
2022/08/08 10:49:53;;;;;;;2.30;2.20;;;;;;;40.45;14.93;101798.34;5063477;28;20039;-86
2022/08/08 10:52:33;;;;;;;2.03;1.92;;;;;;;40.18;14.85;101793.25;5053044;28;20510;-88
2022/08/08 10:55:17;;;;;;;2.35;2.20;;;;;;;39.42;15.75;101797.56;5066546;28;20483;-84
2022/08/08 10:57:49;;;;;;;2.15;2.05;;;;;;;39.88;15.54;101794.13;5066876;28;20048;-83
2022/08/08 11:00:23;;;;;;;2.22;2.05;;;;;;;40.31;15.32;101795.38;5051644;28;20052;-83
2022/08/08 11:02:50;;;;;;;2.42;1.88;;;;;;;40.72;15.11;101790.56;5049201;28;20044;-82
2022/08/08 11:05:18;;;;;;;1.83;1.73;;;;;;;40.61;14.98;101794.63;5053654;28;20036;-86
2022/08/08 11:07:52;;;;;;;1.90;1.80;;;;;;;40.40;14.72;101784.34;5046645;28;20029;-85
2022/08/08 11:10:26;;;;;;;2.15;2.00;;;;;;;39.48;15.23;101784.00;5066319;28;20584;-91
2022/08/08 11:12:59;;;;;;;2.67;1.75;;;;;;;38.48;15.92;101796.16;5069274;28;20044;-83
2022/08/08 11:15:30;;;;;;;1.60;1.50;;;;;;;38.22;16.95;101793.53;5052546;28;20040;-82
2022/08/08 11:17:57;;;;;;;1.83;1.73;;;;;;;38.71;16.28;101782.63;5040707;28;20047;-81
2022/08/08 11:20:28;;;;;;;1.63;1.52;;;;;;;39.28;15.85;101790.94;5063712;28;20159;-84
2022/08/08 11:23:02;;;;;;;3.25;1.67;;;;;;;39.66;15.41;101789.28;5052497;28;20048;-83
2022/08/08 11:25:33;;;;;;;1.23;1.23;;;;;;;39.39;15.72;101793.31;5051551;28;20066;-84
2022/08/08 11:28:03;;;;;;;1.87;1.50;;;;;;;39.10;15.99;101789.25;5034481;28;20493;-84
2022/08/08 11:30:33;;;;;;;1.63;1.60;;;;;;;39.34;15.56;101790.25;5054123;28;20044;-87
2022/08/08 11:33:05;;;;;;;1.77;1.67;;;;;;;39.65;15.42;101792.19;5066326;28;20044;-85
2022/08/08 11:35:32;;;;;;;;;;;;;;;40.50;14.67;101795.91;5064376;28;20052;-85
2022/08/08 11:38:03;;;;;;;2.25;2.00;;;;;;;41.26;14.28;101787.59;5021531;28;19920;-87
2022/08/08 11:40:31;;;;;;;1.52;1.52;;;;;;;41.97;13.68;101784.31;5069193;28;20040;-82
2022/08/08 11:42:58;;;;;;;4.72;1.73;;;;;;;42.17;13.77;101791.06;5069535;28;20086;-83
2022/08/08 11:45:25;;;;;;;2.03;1.92;;;;;;;42.19;13.26;101787.06;5038225;28;20059;-87
2022/08/08 11:47:53;;;;;;;1.60;1.60;;;;;;;42.24;13.67;101784.59;5038899;28;22319;-84
2022/08/08 11:50:20;;;;;;;1.48;1.38;;;;;;;41.26;13.56;101784.03;5051277;28;20040;-84
2022/08/08 11:52:47;;;;;;;1.55;1.55;;;;;;;40.76;14.25;101787.28;5031790;28;20427;-87
2022/08/08 11:55:25;;;;;;;2.13;1.73;;;;;;;40.35;14.82;101788.50;5050851;28;20502;-84
2022/08/08 11:58:11;;;;;;;1.80;1.80;;;;;;;40.29;14.00;101772.75;5035564;28;20047;-90
2022/08/08 12:00:54;;;;;;;1.58;1.58;;;;;;;40.14;14.87;101774.59;5063304;28;20051;-83
2022/08/08 12:03:24;;;;;;;1.95;1.85;;;;;;;40.52;14.58;101766.41;5053420;28;20044;-85
2022/08/08 12:05:54;;;;;;;1.90;1.90;;;;;;;40.54;14.30;101769.84;5054014;28;20048;-84
2022/08/08 12:08:33;;;;;;;2.63;1.90;;;;;;;40.57;13.95;101768.59;5070695;28;20044;-88
2022/08/08 12:11:08;;;;;;;1.60;1.50;;;;;;;40.62;14.07;101777.13;5065588;28;20054;-82
2022/08/08 12:13:35;;;;;;;1.55;1.55;;;;;;;40.84;14.02;101776.22;5053553;28;20041;-84
2022/08/08 12:16:15;;;;;;;1.70;1.60;;;;;;;41.29;13.27;101765.28;5067952;28;20048;-84
2022/08/08 12:18:50;;;;;;;1.90;1.70;;;;;;;41.31;13.74;101776.06;5063279;28;20096;-88
2022/08/08 12:21:28;;;;;;;1.88;1.77;;;;;;;41.91;13.33;101771.31;5066326;28;20100;-87
2022/08/08 12:24:32;;;;;;;3.67;1.88;;;;;;;42.62;12.68;101764.13;5049692;28;20100;-83
2022/08/08 12:26:59;;;;;;;2.33;2.13;;;;;;;43.02;12.73;101778.19;5065708;28;20135;-82
2022/08/08 12:29:31;;;;;;;1.55;1.50;;;;;;;42.99;12.49;101764.84;5054078;28;20033;-83
2022/08/08 12:32:15;;;;;;;1.88;1.77;;;;;;;43.13;12.66;101771.31;5067375;28;20047;-83